createdAt,value
2023-01-15T00:02:11.168Z,8.36
2023-01-15T00:07:14.786Z,8.43
2023-01-15T00:12:16.533Z,8.49
2023-01-15T00:17:18.662Z,8.59
2023-01-15T00:22:22.305Z,8.58
2023-01-15T00:27:24.782Z,8.62
2023-01-15T00:32:26.834Z,8.69
2023-01-15T00:37:30.328Z,8.70
2023-01-15T00:42:32.414Z,8.76
2023-01-15T00:47:34.484Z,8.78
2023-01-15T00:52:38.201Z,8.77
2023-01-15T00:57:40.211Z,8.89
2023-01-15T01:02:42.395Z,8.94
2023-01-15T01:07:45.948Z,8.99
2023-01-15T01:12:48.433Z,8.96
2023-01-15T01:17:50.236Z,9.03
2023-01-15T01:22:53.984Z,9.07
2023-01-15T01:27:56.393Z,9.16
2023-01-15T01:32:58.513Z,9.19
2023-01-15T01:38:02.155Z,9.23
2023-01-15T01:43:04.096Z,9.26
2023-01-15T01:48:07.567Z,9.11
2023-01-15T01:53:15.328Z,9.02
2023-01-15T01:58:18.530Z,8.97
2023-01-15T02:03:24.305Z,8.92
2023-01-15T02:08:27.855Z,8.83
2023-01-15T02:13:37.133Z,8.78
2023-01-15T02:18:47.370Z,8.80
2023-01-15T02:24:12.702Z,8.75
2023-01-15T02:29:23.723Z,8.76
2023-01-15T02:34:29.809Z,8.71
2023-01-15T02:39:35.945Z,8.68
2023-01-15T02:44:44.546Z,8.65
2023-01-15T02:49:47.373Z,8.64
2023-01-15T02:54:55.172Z,8.63
2023-01-15T03:00:03.536Z,8.63
2023-01-15T03:05:09.584Z,8.62
2023-01-15T03:10:12.324Z,8.60
2023-01-15T03:15:20.773Z,8.65
2023-01-15T03:20:26.364Z,8.64
2023-01-15T03:25:34.554Z,8.62
2023-01-15T03:30:38.389Z,8.60
2023-01-15T03:35:45.871Z,8.61
2023-01-15T03:40:58.021Z,8.64
2023-01-15T03:46:07.278Z,8.57
2023-01-15T03:51:16.652Z,8.58
2023-01-15T03:56:25.022Z,8.59
2023-01-15T04:01:35.285Z,8.56
2023-01-15T04:06:40.235Z,8.68
2023-01-15T04:11:42.348Z,7.36
2023-01-15T04:16:45.678Z,7.09
2023-01-15T04:21:47.794Z,6.95
2023-01-15T04:26:49.728Z,6.87
2023-01-15T04:31:53.507Z,6.72
2023-01-15T04:36:56.455Z,6.53
2023-01-15T04:41:58.795Z,6.35
2023-01-15T04:47:02.363Z,6.22
2023-01-15T04:52:04.775Z,6.05
2023-01-15T04:57:07.593Z,5.94
2023-01-15T05:02:11.138Z,5.87
2023-01-15T05:07:13.266Z,5.75
2023-01-15T05:12:15.338Z,5.76
2023-01-15T05:17:18.999Z,5.69
2023-01-15T05:22:21.079Z,5.54
2023-01-15T05:27:23.274Z,5.47
2023-01-15T05:32:27.124Z,5.48
2023-01-15T05:37:30.693Z,5.58
2023-01-15T05:42:32.721Z,5.53
2023-01-15T05:47:36.217Z,5.48
2023-01-15T05:52:38.309Z,5.44
2023-01-15T05:57:40.331Z,5.42
2023-01-15T06:02:43.739Z,5.34
2023-01-15T06:07:48.009Z,5.30
2023-01-15T06:12:50.217Z,5.25
2023-01-15T06:17:53.780Z,5.24
2023-01-15T06:22:55.940Z,5.24
2023-01-15T06:27:58.856Z,5.15
2023-01-15T06:33:03.339Z,5.15
2023-01-15T06:38:05.396Z,5.13
2023-01-15T06:43:09.363Z,5.07
2023-01-15T06:48:12.988Z,5.04
2023-01-15T06:53:14.774Z,5.03
2023-01-15T06:58:17.148Z,5.00
2023-01-15T07:03:20.929Z,4.98
2023-01-15T07:08:22.978Z,4.96
2023-01-15T07:13:25.310Z,4.93
2023-01-15T07:18:30.645Z,4.92
2023-01-15T07:23:32.832Z,4.84
2023-01-15T07:28:35.546Z,4.86
2023-01-15T07:33:39.380Z,4.85
2023-01-15T07:38:41.688Z,4.81
2023-01-15T07:43:43.625Z,4.86
2023-01-15T07:48:47.360Z,4.94
2023-01-15T07:53:49.162Z,4.97
2023-01-15T07:58:51.258Z,5.00
2023-01-15T08:03:54.335Z,4.96
2023-01-15T08:08:56.065Z,4.94
2023-01-15T08:13:57.769Z,4.99
2023-01-15T08:19:01.223Z,5.00
2023-01-15T08:24:02.936Z,5.03
2023-01-15T08:29:04.668Z,5.05
2023-01-15T08:34:08.585Z,5.04
2023-01-15T08:39:10.978Z,5.09
2023-01-15T08:44:12.659Z,5.18
2023-01-15T08:49:16.720Z,5.18
2023-01-15T08:54:20.105Z,5.26
2023-01-15T08:59:22.435Z,5.29
2023-01-15T09:04:25.549Z,5.29
2023-01-15T09:09:27.676Z,5.34
2023-01-15T09:14:56.340Z,5.35
2023-01-15T09:19:53.736Z,5.48
2023-01-15T09:24:55.802Z,5.60
2023-01-15T09:29:58.019Z,5.63
2023-01-15T09:35:01.626Z,5.71
2023-01-15T09:40:04.274Z,5.77
2023-01-15T09:45:18.612Z,5.85
2023-01-15T09:50:34.643Z,5.97
2023-01-15T09:55:43.330Z,6.04
2023-01-15T10:00:48.370Z,6.11
2023-01-15T10:06:02.214Z,6.16
2023-01-15T10:11:20.343Z,6.23
2023-01-15T10:16:24.861Z,6.25
2023-01-15T10:21:39.525Z,6.40
2023-01-15T10:26:50.516Z,6.41
2023-01-15T10:31:54.333Z,6.53
2023-01-15T10:37:03.452Z,6.61
2023-01-15T10:42:17.516Z,6.68
2023-01-15T10:47:29.538Z,6.71
2023-01-15T10:52:37.951Z,6.73
2023-01-15T10:57:46.529Z,6.89
2023-01-15T11:02:57.107Z,6.99
2023-01-15T11:08:28.631Z,6.93
2023-01-15T11:13:26.779Z,6.89
2023-01-15T11:18:32.198Z,6.84
2023-01-15T11:23:36.700Z,6.84
2023-01-15T11:28:40.172Z,6.84
2023-01-15T11:33:44.947Z,6.75
2023-01-15T11:38:50.307Z,6.85
2023-01-15T11:43:55.813Z,6.81
2023-01-15T11:48:57.549Z,6.78
2023-01-15T11:54:04.698Z,6.79
2023-01-15T11:59:12.505Z,6.82
2023-01-15T12:04:26.993Z,6.86
2023-01-15T12:09:43.419Z,6.85
2023-01-15T12:14:59.084Z,6.89
2023-01-15T12:20:12.068Z,6.92
2023-01-15T12:25:25.610Z,6.91
2023-01-15T12:30:37.634Z,6.91
2023-01-15T12:35:44.912Z,6.97
2023-01-15T12:40:53.631Z,7.00
2023-01-15T12:45:56.620Z,6.99
2023-01-15T12:51:01.679Z,6.92
2023-01-15T12:56:15.617Z,6.91
2023-01-15T13:01:26.340Z,6.95
2023-01-15T13:06:29.176Z,7.04
2023-01-15T13:11:33.101Z,7.13
2023-01-15T13:16:45.361Z,7.16
2023-01-15T13:21:49.881Z,7.09
2023-01-15T13:27:13.537Z,6.90
2023-01-15T13:32:20.306Z,6.79
2023-01-15T13:37:27.674Z,6.65
2023-01-15T13:42:31.841Z,6.51
2023-01-15T13:47:37.135Z,6.51
2023-01-15T13:52:39.242Z,6.56
2023-01-15T13:57:45.720Z,6.79
2023-01-15T14:02:53.273Z,6.89
2023-01-15T14:07:55.267Z,6.74
2023-01-15T14:13:29.633Z,6.55
2023-01-15T14:18:53.638Z,6.48
2023-01-15T14:24:11.278Z,6.44
2023-01-15T14:29:43.734Z,6.34
2023-01-15T14:34:55.868Z,6.31
2023-01-15T14:40:00.295Z,6.27
2023-01-15T14:45:07.314Z,6.17
2023-01-15T14:50:34.333Z,6.11
2023-01-15T14:55:46.318Z,6.15
2023-01-15T15:00:55.671Z,5.99
2023-01-15T15:05:58.340Z,5.91
2023-01-15T15:11:02.521Z,5.78
2023-01-15T15:16:13.041Z,5.71
2023-01-15T15:21:21.150Z,5.63
2023-01-15T15:26:26.203Z,5.53
2023-01-15T15:31:33.567Z,5.51
2023-01-15T15:36:39.633Z,5.41
2023-01-15T15:41:46.139Z,5.26
2023-01-15T15:46:50.544Z,5.26
2023-01-15T15:51:54.277Z,5.22
2023-01-15T15:56:59.226Z,5.05
2023-01-15T16:02:17.075Z,4.94
2023-01-15T16:07:23.487Z,4.93
2023-01-15T16:12:29.484Z,4.92
2023-01-15T16:17:34.238Z,4.81
2023-01-15T16:22:36.344Z,4.89
2023-01-15T16:27:38.497Z,4.95
2023-01-15T16:32:43.381Z,4.95
2023-01-15T16:37:49.315Z,4.83
2023-01-15T16:43:03.833Z,4.98
2023-01-15T16:48:27.493Z,4.92
2023-01-15T16:53:36.612Z,4.95
2023-01-15T16:58:40.153Z,4.97
2023-01-15T17:03:43.468Z,5.01
2023-01-15T17:08:49.258Z,5.06
2023-01-15T17:13:51.283Z,5.04
2023-01-15T17:18:54.519Z,5.01
2023-01-15T17:23:56.952Z,4.98
2023-01-15T17:28:58.862Z,5.06
2023-01-15T17:34:03.118Z,5.12
2023-01-15T17:39:04.879Z,5.13
2023-01-15T17:44:06.714Z,5.03
2023-01-15T17:49:10.007Z,5.03
2023-01-15T17:54:11.870Z,5.12
2023-01-15T17:59:13.792Z,5.18
2023-01-15T18:04:24.555Z,5.16
2023-01-15T18:09:26.406Z,5.20
2023-01-15T18:14:28.488Z,5.23
2023-01-15T18:19:31.693Z,5.25
2023-01-15T18:24:33.909Z,5.15
2023-01-15T18:29:36.283Z,5.38
2023-01-15T18:34:39.789Z,5.40
2023-01-15T18:39:41.870Z,5.25
2023-01-15T18:44:43.991Z,5.33
2023-01-15T18:49:47.569Z,5.39
2023-01-15T18:54:49.549Z,5.33
2023-01-15T18:59:52.290Z,5.32
2023-01-15T19:04:55.651Z,5.32
2023-01-15T19:09:57.951Z,5.24
2023-01-15T19:15:00.106Z,5.26
2023-01-15T19:20:04.955Z,5.38
2023-01-15T19:25:07.851Z,5.34
2023-01-15T19:30:11.103Z,5.44
2023-01-15T19:35:14.971Z,5.36
2023-01-15T19:40:18.038Z,5.27
2023-01-15T19:45:20.698Z,5.14
2023-01-15T19:50:30.504Z,5.13
2023-01-15T19:55:33.395Z,5.05
2023-01-15T20:00:37.822Z,5.06
2023-01-15T20:05:42.966Z,5.12
2023-01-15T20:10:46.451Z,5.09
2023-01-15T20:15:48.403Z,5.05
2023-01-15T20:20:55.004Z,5.14
2023-01-15T20:26:01.819Z,5.00
2023-01-15T20:31:04.320Z,4.93
2023-01-15T20:36:09.192Z,4.92
2023-01-15T20:41:11.951Z,4.91
2023-01-15T20:46:13.738Z,4.87
2023-01-15T20:51:17.326Z,4.86
2023-01-15T20:56:19.513Z,4.97
2023-01-15T21:01:21.760Z,4.90
2023-01-15T21:06:25.441Z,4.86
2023-01-15T21:11:27.543Z,4.80
2023-01-15T21:16:29.472Z,4.81
2023-01-15T21:21:32.793Z,4.94
2023-01-15T21:26:34.919Z,5.11
2023-01-15T21:31:36.887Z,5.15
2023-01-15T21:36:39.978Z,4.99
2023-01-15T21:41:42.778Z,5.01
2023-01-15T21:46:44.486Z,5.02
2023-01-15T21:51:48.137Z,5.05
2023-01-15T21:56:49.853Z,5.00
2023-01-15T22:01:53.133Z,4.94
2023-01-15T22:06:56.629Z,4.89
2023-01-15T22:11:58.736Z,4.81
2023-01-15T22:17:02.955Z,4.68
2023-01-15T22:22:08.616Z,4.71
2023-01-15T22:27:15.074Z,4.58
2023-01-15T22:32:17.097Z,4.57
2023-01-15T22:37:20.702Z,4.45
2023-01-15T22:42:22.484Z,4.36
2023-01-15T22:47:24.688Z,4.20
2023-01-15T22:52:28.462Z,4.24
2023-01-15T22:57:30.509Z,4.21
2023-01-15T23:02:32.176Z,4.40
2023-01-15T23:07:35.557Z,4.56
2023-01-15T23:12:37.277Z,4.63
2023-01-15T23:17:39.630Z,4.59
2023-01-15T23:22:43.133Z,4.65
2023-01-15T23:27:45.296Z,4.66
2023-01-15T23:32:47.384Z,4.57
2023-01-15T23:37:50.939Z,4.54
2023-01-15T23:42:53.226Z,4.42
2023-01-15T23:47:55.708Z,4.28
2023-01-15T23:52:59.566Z,4.25
2023-01-15T23:58:01.579Z,4.32
